Time;durP1;ratioP1;P1;durP2;ratioP2;P2;SDS_P1;SDS_P2;PMS_P1;PMS_P2;Temp;Humidity;BMP_temperature;BMP_pressure;BME280_temperature;BME280_humidity;BME280_pressure;Samples;Min_cycle;Max_cycle;Signal;HPM_P1;HPM_P2
2023/08/10 00:11:32;;;;;;;8.15;3.60;;;;;;;14.17;90.16;102208.72;6092679;19;20059;-69
2023/08/10 00:13:37;;;;;;;8.80;3.67;;;;;;;14.18;90.24;102205.13;6101973;19;20070;-68
2023/08/10 00:15:43;;;;;;;6.97;3.92;;;;;;;14.21;89.70;102200.59;6100781;19;20021;-69
2023/08/10 00:17:49;;;;;;;8.00;3.50;;;;;;;14.21;90.45;102194.44;6106688;19;20153;-69
2023/08/10 00:19:54;;;;;;;8.30;3.20;;;;;;;14.21;89.70;102202.38;6105208;19;20006;-69
2023/08/10 00:21:59;;;;;;;8.20;3.20;;;;;;;14.20;90.67;102204.16;6100254;19;21052;-69
2023/08/10 00:24:05;;;;;;;6.82;3.53;;;;;;;14.16;90.21;102202.53;6104120;19;20359;-69
2023/08/10 00:26:10;;;;;;;7.50;3.45;;;;;;;14.20;90.31;102196.22;6104665;19;20608;-69
2023/08/10 00:28:18;;;;;;;8.30;3.60;;;;;;;14.24;90.38;102202.28;6106513;19;20550;-68
2023/08/10 00:30:26;;;;;;;7.80;2.80;;;;;;;14.23;91.47;102200.56;6106217;19;20475;-69
2023/08/10 00:32:31;;;;;;;9.80;3.63;;;;;;;14.27;90.83;102199.56;6100204;19;20010;-68
2023/08/10 00:34:37;;;;;;;7.03;3.10;;;;;;;14.30;90.34;102199.44;6106067;19;20663;-69
2023/08/10 00:36:42;;;;;;;8.45;3.03;;;;;;;14.32;91.17;102194.94;6106893;19;20016;-68
2023/08/10 00:38:47;;;;;;;8.07;2.95;;;;;;;14.36;90.78;102201.88;6103358;19;20034;-69
2023/08/10 00:40:52;;;;;;;6.80;3.50;;;;;;;14.34;91.50;102201.03;6103629;19;20568;-68
2023/08/10 00:42:58;;;;;;;8.38;3.08;;;;;;;14.23;90.45;102195.25;6098167;19;20041;-69
2023/08/10 00:45:09;;;;;;;6.82;2.92;;;;;;;14.24;90.69;102199.63;6102101;19;20787;-69
2023/08/10 00:47:14;;;;;;;4.60;2.65;;;;;;;14.23;90.83;102195.25;6097753;19;20011;-70
2023/08/10 00:49:19;;;;;;;7.43;3.28;;;;;;;14.19;90.86;102197.16;6102146;19;20007;-69
2023/08/10 00:51:24;;;;;;;6.57;3.10;;;;;;;14.18;90.80;102200.69;6102104;19;20094;-69
2023/08/10 00:53:30;;;;;;;7.22;3.42;;;;;;;14.19;91.48;102198.91;6104249;19;21150;-70
2023/08/10 00:55:36;;;;;;;7.20;3.47;;;;;;;14.16;91.73;102191.09;6104967;19;20018;-70
2023/08/10 00:57:41;;;;;;;8.45;3.10;;;;;;;14.12;91.67;102202.72;6105100;19;20087;-69
2023/08/10 00:59:48;;;;;;;5.18;3.10;;;;;;;14.08;91.16;102195.78;6098594;19;20010;-69
2023/08/10 01:01:56;;;;;;;8.13;3.03;;;;;;;14.05;91.41;102192.31;6104851;19;20458;-68
2023/08/10 01:04:01;;;;;;;6.93;3.40;;;;;;;14.07;92.10;102204.63;6105062;19;20086;-71
2023/08/10 01:06:14;;;;;;;5.25;2.53;;;;;;;14.06;92.07;102206.44;6105703;19;20007;-69
2023/08/10 01:08:28;;;;;;;7.25;2.70;;;;;;;14.00;92.13;102202.19;6105149;19;20021;-68
2023/08/10 01:10:41;;;;;;;4.85;2.47;;;;;;;13.97;92.06;102199.63;6104048;19;20062;-70
2023/08/10 01:12:49;;;;;;;5.10;2.80;;;;;;;14.01;91.76;102195.13;6103094;19;20030;-68
2023/08/10 01:15:04;;;;;;;4.22;2.47;;;;;;;13.97;92.95;102206.72;6105962;19;20009;-70
2023/08/10 01:17:32;;;;;;;6.93;2.90;;;;;;;13.93;92.62;102202.44;6094234;19;20031;-70
2023/08/10 01:19:40;;;;;;;6.22;2.72;;;;;;;13.88;93.32;102205.25;6100519;19;20006;-69
2023/08/10 01:21:54;;;;;;;6.38;3.00;;;;;;;13.88;93.58;102199.97;6105656;19;20031;-69
2023/08/10 01:24:06;;;;;;;5.32;2.33;;;;;;;13.92;93.19;102192.78;6105682;19;20430;-69
2023/08/10 01:26:14;;;;;;;7.30;2.88;;;;;;;13.90;94.26;102200.78;6104299;19;20010;-69
2023/08/10 01:28:20;;;;;;;5.28;2.63;;;;;;;13.91;93.15;102201.63;6103485;19;20011;-68
2023/08/10 01:30:26;;;;;;;4.43;2.42;;;;;;;13.86;93.68;102193.84;6104035;19;20011;-70
2023/08/10 01:32:29;;;;;;;3.75;2.25;;;;;;;13.77;93.50;102199.41;6103543;19;20003;-68
2023/08/10 01:34:34;;;;;;;7.43;2.33;;;;;;;13.77;93.40;102192.38;6098827;19;20010;-67
2023/08/10 01:36:39;;;;;;;5.82;2.30;;;;;;;13.78;94.09;102191.47;6099894;19;20042;-70
2023/08/10 01:38:46;;;;;;;2.95;1.92;;;;;;;13.76;93.74;102190.63;6102932;19;20010;-69
2023/08/10 01:40:51;;;;;;;3.53;2.40;;;;;;;13.72;94.04;102189.03;6103943;19;20011;-69
2023/08/10 01:42:59;;;;;;;4.75;2.53;;;;;;;13.63;94.50;102188.44;6104076;19;20019;-69
2023/08/10 01:45:08;;;;;;;4.75;2.63;;;;;;;13.61;94.67;102194.66;6104293;19;20006;-68
2023/08/10 01:47:22;;;;;;;4.15;2.50;;;;;;;13.55;95.53;102194.81;6098155;19;20010;-69
2023/08/10 01:49:32;;;;;;;5.97;2.20;;;;;;;13.54;94.94;102193.09;6096585;19;20446;-68
2023/08/10 01:51:37;;;;;;;5.80;2.45;;;;;;;13.51;94.62;102193.19;6101311;19;20166;-68
2023/08/10 01:53:45;;;;;;;5.60;2.45;;;;;;;13.52;93.85;102189.63;6098926;19;20046;-69
2023/08/10 01:55:50;;;;;;;4.25;2.30;;;;;;;13.53;96.23;102187.84;6104006;19;20021;-69
2023/08/10 01:57:55;;;;;;;7.40;2.92;;;;;;;13.51;96.63;102193.19;6103900;19;20039;-70
2023/08/10 02:00:00;;;;;;;6.38;2.72;;;;;;;13.52;96.30;102194.06;6101297;19;20027;-70
2023/08/10 02:02:06;;;;;;;3.30;2.17;;;;;;;13.51;97.33;102193.19;6103922;19;20102;-68
2023/08/10 02:04:11;;;;;;;5.75;3.03;;;;;;;13.50;97.19;102199.38;6102812;19;20010;-68
2023/08/10 02:06:16;;;;;;;3.85;2.13;;;;;;;13.50;97.04;102196.75;6100439;19;20011;-68
2023/08/10 02:08:21;;;;;;;3.97;2.38;;;;;;;13.48;96.17;102193.31;6098839;19;20006;-69
2023/08/10 02:10:26;;;;;;;4.57;2.40;;;;;;;13.48;97.17;102202.97;6101472;19;20019;-68
2023/08/10 02:12:31;;;;;;;6.05;2.85;;;;;;;13.45;97.87;102203.06;6102607;19;20015;-69
2023/08/10 02:14:34;;;;;;;6.60;2.20;;;;;;;13.41;97.50;102197.03;6101389;19;20368;-69
2023/08/10 02:16:41;;;;;;;;;;;;;;;13.41;97.07;102204.97;6103776;19;20006;-68
2023/08/10 02:18:46;;;;;;;6.82;2.97;;;;;;;13.38;97.45;102202.41;6101828;19;19922;-68
2023/08/10 02:20:52;;;;;;;4.32;2.55;;;;;;;13.35;96.88;102199.88;6101885;19;20353;-69
2023/08/10 02:22:57;;;;;;;5.30;2.60;;;;;;;13.34;97.14;102196.34;6101343;19;20066;-69
2023/08/10 02:25:02;;;;;;;5.43;2.58;;;;;;;13.32;97.97;102202.56;6097188;19;20050;-68
2023/08/10 02:27:08;;;;;;;3.53;2.30;;;;;;;13.28;97.82;102199.19;6097710;19;20500;-69
2023/08/10 02:29:13;;;;;;;4.93;2.80;;;;;;;13.29;97.41;102203.53;6093384;19;20130;-68
2023/08/10 02:31:18;;;;;;;5.95;2.45;;;;;;;13.26;98.63;102195.72;6102406;19;20515;-68
2023/08/10 02:33:28;;;;;;;9.80;2.60;;;;;;;13.29;98.99;102192.13;6102514;19;20082;-69
2023/08/10 02:35:36;;;;;;;4.97;2.50;;;;;;;13.26;99.20;102198.34;6102839;19;20013;-69
2023/08/10 02:37:42;;;;;;;5.57;2.70;;;;;;;13.25;99.09;102198.38;6099886;19;20535;-69
2023/08/10 02:39:47;;;;;;;4.32;2.65;;;;;;;13.20;99.58;102203.78;6097732;19;20011;-69
2023/08/10 02:41:52;;;;;;;4.53;2.35;;;;;;;13.19;99.60;102204.69;6103020;19;20312;-69
2023/08/10 02:43:57;;;;;;;5.72;2.55;;;;;;;13.20;99.85;102202.94;6098677;19;20420;-69
2023/08/10 02:46:03;;;;;;;5.80;2.67;;;;;;;13.18;100.00;102205.59;6101057;19;20752;-69
2023/08/10 02:48:09;;;;;;;5.53;2.67;;;;;;;13.19;100.00;102209.97;6100551;19;20054;-69
2023/08/10 02:50:17;;;;;;;4.72;2.78;;;;;;;13.24;100.00;102209.84;6101983;19;20141;-68
2023/08/10 02:52:19;;;;;;;8.43;2.75;;;;;;;13.20;100.00;102213.50;6099197;19;20367;-68
2023/08/10 02:54:24;;;;;;;5.35;2.58;;;;;;;13.15;100.00;102214.47;6101906;19;20027;-70
2023/08/10 02:56:30;;;;;;;5.40;2.72;;;;;;;13.11;100.00;102220.78;6100410;19;20038;-69
2023/08/10 02:58:35;;;;;;;5.13;2.70;;;;;;;13.10;100.00;102219.03;6100981;19;20007;-69
2023/08/10 03:00:41;;;;;;;7.80;3.05;;;;;;;13.06;100.00;102217.41;6098511;19;20070;-68
2023/08/10 03:02:50;;;;;;;4.38;2.90;;;;;;;13.13;100.00;102216.28;6099313;19;20026;-68
2023/08/10 03:04:55;;;;;;;6.38;2.80;;;;;;;13.14;100.00;102215.41;6094659;19;20014;-69
2023/08/10 03:07:04;;;;;;;6.07;3.13;;;;;;;13.15;100.00;102216.25;6097967;19;20011;-69
2023/08/10 03:09:09;;;;;;;4.97;2.75;;;;;;;13.17;100.00;102215.31;6098970;19;20019;-70
2023/08/10 03:11:14;;;;;;;7.68;3.08;;;;;;;13.14;100.00;102202.19;6090799;19;20006;-69
2023/08/10 03:13:19;;;;;;;6.57;2.65;;;;;;;13.13;100.00;102208.38;6098699;19;20038;-69
2023/08/10 03:15:24;;;;;;;6.72;3.22;;;;;;;13.14;100.00;102199.56;6100296;19;20389;-68
2023/08/10 03:17:29;;;;;;;4.68;2.55;;;;;;;13.12;100.00;102204.03;6093719;19;20490;-68
2023/08/10 03:19:35;;;;;;;5.22;2.83;;;;;;;13.13;100.00;102203.09;6099603;19;20034;-69
2023/08/10 03:21:40;;;;;;;6.13;2.85;;;;;;;13.14;100.00;102201.34;6101943;19;20014;-69
2023/08/10 03:23:48;;;;;;;6.15;3.20;;;;;;;13.10;100.00;102197.91;6099263;19;20019;-69
2023/08/10 03:25:56;;;;;;;5.65;3.10;;;;;;;13.07;100.00;102202.44;6096262;19;20027;-69
2023/08/10 03:28:03;;;;;;;6.57;3.22;;;;;;;13.04;100.00;102202.53;6098266;19;20326;-69
2023/08/10 03:30:13;;;;;;;6.32;3.08;;;;;;;12.98;100.00;102203.56;6099584;19;20017;-68
2023/08/10 03:32:18;;;;;;;5.60;2.90;;;;;;;12.97;100.00;102209.72;6097381;19;19999;-69
2023/08/10 03:34:24;;;;;;;7.35;3.45;;;;;;;12.91;100.00;102218.69;6101567;19;20544;-69
2023/08/10 03:36:31;;;;;;;4.80;3.15;;;;;;;12.93;100.00;102216.03;6094748;19;20013;-69
2023/08/10 03:38:36;;;;;;;5.90;3.35;;;;;;;12.94;100.00;102212.47;6097393;19;20011;-68
2023/08/10 03:40:44;;;;;;;6.30;3.47;;;;;;;12.98;100.00;102206.22;6096268;19;20007;-69
2023/08/10 03:42:49;;;;;;;7.90;3.55;;;;;;;13.02;100.00;102206.97;6096289;19;20438;-69
2023/08/10 03:44:55;;;;;;;7.30;3.47;;;;;;;12.99;100.00;102205.28;6100094;19;20463;-69
2023/08/10 03:47:00;;;;;;;7.05;3.33;;;;;;;12.99;100.00;102199.16;6096813;19;20014;-69
2023/08/10 03:49:05;;;;;;;6.07;3.00;;;;;;;12.96;100.00;102202.75;6099265;19;20007;-70
2023/08/10 03:51:10;;;;;;;5.43;3.25;;;;;;;12.96;100.00;102213.28;6095984;19;20010;-68
2023/08/10 03:53:15;;;;;;;6.03;3.22;;;;;;;12.96;100.00;102213.28;6100306;19;20017;-68
2023/08/10 03:55:20;;;;;;;6.00;3.47;;;;;;;12.99;100.00;102214.97;6103810;19;20006;-70
2023/08/10 03:57:28;;;;;;;7.43;3.70;;;;;;;13.07;100.00;102202.44;6101738;19;20518;-68
2023/08/10 03:59:33;;;;;;;9.93;3.25;;;;;;;13.12;100.00;102206.66;6104207;19;20980;-68
2023/08/10 04:01:38;;;;;;;6.82;3.45;;;;;;;13.13;100.00;102208.38;6101397;19;20010;-68
2023/08/10 04:03:46;;;;;;;6.80;3.97;;;;;;;13.20;100.00;102210.84;6098494;19;20011;-68
2023/08/10 04:05:51;;;;;;;6.32;3.05;;;;;;;13.25;100.00;102214.22;6102999;19;20017;-69
2023/08/10 04:07:56;;;;;;;6.90;3.50;;;;;;;13.28;100.00;102214.16;6103129;19;20079;-70
2023/08/10 04:10:01;;;;;;;6.78;3.78;;;;;;;13.30;100.00;102209.72;6104819;19;20422;-68
2023/08/10 04:12:06;;;;;;;8.68;4.20;;;;;;;13.37;100.00;102212.09;6104219;19;20006;-68
2023/08/10 04:14:38;;;;;;;6.80;3.50;;;;;;;13.43;100.00;102212.81;6077395;19;20399;-71
2023/08/10 04:16:42;;;;;;;8.15;4.43;;;;;;;13.46;100.00;102216.25;6104006;19;20015;-70
2023/08/10 04:18:47;;;;;;;9.13;4.03;;;;;;;13.45;100.00;102218.91;6104676;19;20398;-69
2023/08/10 04:20:53;;;;;;;8.55;4.25;;;;;;;13.48;100.00;102222.34;6106543;19;20014;-70
2023/08/10 04:22:59;;;;;;;9.48;3.70;;;;;;;13.53;100.00;102217.78;6104875;19;20017;-69
2023/08/10 04:25:06;;;;;;;8.63;3.60;;;;;;;13.57;100.00;102223.84;6105045;19;20014;-69
2023/08/10 04:27:12;;;;;;;7.47;3.40;;;;;;;13.65;100.00;102221.81;6099115;19;20073;-68
2023/08/10 04:29:17;;;;;;;7.15;3.30;;;;;;;13.70;100.00;102211.97;6106382;19;20389;-68
2023/08/10 04:31:24;;;;;;;6.53;3.35;;;;;;;13.74;100.00;102215.38;6104951;19;20038;-68
2023/08/10 04:33:31;;;;;;;6.82;3.20;;;;;;;13.84;100.00;102220.31;6102484;19;20066;-70
2023/08/10 04:35:36;;;;;;;7.97;4.13;;;;;;;13.90;100.00;102216.63;6102927;19;20046;-68
2023/08/10 04:37:44;;;;;;;6.35;3.25;;;;;;;13.90;100.00;102214.00;6103389;19;20007;-68
2023/08/10 04:39:49;;;;;;;7.43;3.70;;;;;;;13.94;100.00;102215.59;6104035;19;20019;-68
2023/08/10 04:41:54;;;;;;;8.77;3.63;;;;;;;13.97;100.00;102212.00;6105269;19;20010;-69
2023/08/10 04:43:59;;;;;;;7.13;3.75;;;;;;;13.99;100.00;102211.03;6100302;19;20022;-68
2023/08/10 04:46:04;;;;;;;10.13;3.80;;;;;;;14.02;100.00;102207.44;6106236;19;20014;-69
2023/08/10 04:48:13;;;;;;;7.28;3.63;;;;;;;14.10;100.00;102201.88;6102378;19;20006;-69
2023/08/10 04:50:18;;;;;;;8.05;3.80;;;;;;;14.12;100.00;102205.34;6098920;19;20412;-69
2023/08/10 04:52:23;;;;;;;8.40;3.53;;;;;;;14.19;100.00;102204.19;6101636;19;20022;-68
2023/08/10 04:54:28;;;;;;;9.52;3.92;;;;;;;14.22;100.00;102199.69;6103268;19;20019;-69
2023/08/10 04:56:33;;;;;;;7.50;3.63;;;;;;;14.28;100.00;102202.13;6106864;19;20002;-69
2023/08/10 04:58:38;;;;;;;10.18;3.83;;;;;;;14.35;100.00;102205.44;6101716;19;20003;-69
2023/08/10 05:00:43;;;;;;;8.23;4.43;;;;;;;14.39;100.00;102204.41;6100565;19;20613;-69
2023/08/10 05:02:49;;;;;;;12.48;4.55;;;;;;;14.41;100.00;102205.22;6103263;19;20514;-69
2023/08/10 05:04:58;;;;;;;8.05;3.92;;;;;;;14.47;100.00;102201.50;6103183;19;20011;-70
2023/08/10 05:07:03;;;;;;;10.73;3.83;;;;;;;14.47;100.00;102196.19;6102539;19;20007;-69
2023/08/10 05:09:09;;;;;;;10.73;3.92;;;;;;;14.51;100.00;102195.19;6096647;19;20017;-72
2023/08/10 05:11:15;;;;;;;9.07;3.40;;;;;;;14.57;100.00;102194.13;6093139;19;20701;-70
2023/08/10 05:13:22;;;;;;;8.07;3.60;;;;;;;14.61;100.00;102198.38;6102327;19;20820;-70
2023/08/10 05:15:28;;;;;;;9.60;3.92;;;;;;;14.69;100.00;102196.31;6104863;19;20420;-68
2023/08/10 05:17:30;;;;;;;11.88;4.18;;;;;;;14.71;100.00;102198.00;6099673;19;20505;-70
2023/08/10 05:19:35;;;;;;;12.75;4.03;;;;;;;14.77;100.00;102194.28;6102338;19;20018;-70
2023/08/10 05:21:43;;;;;;;9.43;3.97;;;;;;;14.74;100.00;102204.09;6102925;19;20023;-70
2023/08/10 05:23:45;;;;;;;9.05;4.13;;;;;;;14.77;100.00;102194.28;6103443;19;20037;-70
2023/08/10 05:25:50;;;;;;;7.20;3.63;;;;;;;14.82;100.00;102202.88;6099748;19;20010;-69
2023/08/10 05:27:55;;;;;;;6.68;3.60;;;;;;;14.83;100.00;102203.78;6101967;19;20027;-69
2023/08/10 05:30:00;;;;;;;5.40;2.95;;;;;;;14.89;100.00;102199.09;6103868;19;20700;-70
2023/08/10 05:32:06;;;;;;;7.90;3.88;;;;;;;14.95;100.00;102199.81;6098126;19;20042;-70
2023/08/10 05:34:11;;;;;;;8.57;4.18;;;;;;;14.98;100.00;102205.88;6099318;19;20038;-68
2023/08/10 05:36:16;;;;;;;9.05;4.05;;;;;;;15.03;100.00;102200.38;6101172;19;20073;-68
2023/08/10 05:38:24;;;;;;;8.27;4.03;;;;;;;15.04;100.00;102202.97;6103223;19;20726;-69
2023/08/10 05:40:29;;;;;;;9.20;4.13;;;;;;;15.08;100.00;102203.72;6101159;19;20009;-69
2023/08/10 05:42:34;;;;;;;7.22;3.95;;;;;;;15.14;100.00;102203.50;6098280;19;20010;-68
2023/08/10 05:44:39;;;;;;;8.48;4.47;;;;;;;15.17;100.00;102213.13;6099724;19;20535;-68
2023/08/10 05:46:48;;;;;;;11.68;4.60;;;;;;;15.25;99.33;102209.25;6100049;19;20014;-69
2023/08/10 05:48:53;;;;;;;7.70;3.88;;;;;;;15.24;99.09;102210.16;6100454;19;20066;-68
2023/08/10 05:51:01;;;;;;;9.05;4.18;;;;;;;15.27;98.12;102214.47;6096512;19;20046;-68
2023/08/10 05:53:06;;;;;;;10.30;4.28;;;;;;;15.34;97.61;102200.94;6098953;19;20447;-69
2023/08/10 05:55:15;;;;;;;9.45;3.90;;;;;;;15.31;97.86;102206.34;6095096;19;20578;-68
2023/08/10 05:57:24;;;;;;;7.57;3.97;;;;;;;15.41;98.30;102206.88;6097780;19;20006;-68
2023/08/10 05:59:27;;;;;;;10.60;5.03;;;;;;;15.42;97.00;102210.38;6100255;19;24934;-68
2023/08/10 06:01:34;;;;;;;8.15;4.00;;;;;;;15.49;97.12;102209.22;6101725;19;20112;-68
2023/08/10 06:03:40;;;;;;;9.52;4.35;;;;;;;15.52;96.96;102207.31;6099630;19;20110;-69
2023/08/10 06:05:45;;;;;;;11.00;4.72;;;;;;;15.60;95.69;102201.69;6101191;19;20575;-69
2023/08/10 06:07:50;;;;;;;9.02;3.60;;;;;;;15.60;95.06;102199.06;6102220;19;20169;-69
2023/08/10 06:09:55;;;;;;;7.50;3.47;;;;;;;15.66;95.58;102206.75;6102123;19;20015;-69
2023/08/10 06:12:03;;;;;;;8.40;4.35;;;;;;;15.72;95.01;102203.06;6102600;19;20474;-69
2023/08/10 06:14:09;;;;;;;9.23;4.30;;;;;;;15.72;94.04;102201.25;6099228;19;20035;-68
2023/08/10 06:16:14;;;;;;;8.63;4.15;;;;;;;15.69;94.09;102203.16;6100687;19;20052;-69
2023/08/10 06:18:20;;;;;;;9.38;4.25;;;;;;;15.77;94.46;102201.03;6100016;19;20006;-69
2023/08/10 06:20:26;;;;;;;8.20;3.88;;;;;;;15.83;94.97;102205.25;6100279;19;20007;-69
2023/08/10 06:22:34;;;;;;;11.48;4.43;;;;;;;15.86;94.23;102202.47;6100500;19;20034;-69
2023/08/10 06:24:39;;;;;;;9.70;4.00;;;;;;;15.89;93.19;102203.22;6103230;19;20111;-69
2023/08/10 06:26:45;;;;;;;10.88;4.18;;;;;;;16.00;93.30;102202.75;6102224;19;20023;-69
2023/08/10 06:28:53;;;;;;;8.02;3.80;;;;;;;16.11;92.24;102207.63;6099713;19;20006;-70
2023/08/10 06:31:08;;;;;;;8.00;3.78;;;;;;;16.18;90.87;102199.34;6094873;19;20252;-71
2023/08/10 06:33:13;;;;;;;10.40;4.43;;;;;;;16.26;90.42;102206.13;6092298;19;20006;-70
2023/08/10 06:35:16;;;;;;;8.02;3.53;;;;;;;16.34;88.08;102210.16;6100219;19;20064;-70
2023/08/10 06:37:24;;;;;;;7.03;3.58;;;;;;;16.39;87.60;102209.97;6086370;19;20042;-70
2023/08/10 06:39:29;;;;;;;8.60;3.20;;;;;;;16.42;85.13;102209.84;6100594;19;20034;-69
2023/08/10 06:41:35;;;;;;;8.77;3.67;;;;;;;16.50;84.43;102212.16;6100821;19;20010;-68
2023/08/10 06:43:40;;;;;;;9.18;3.88;;;;;;;16.64;84.40;102207.09;6101140;19;20010;-69
2023/08/10 06:45:47;;;;;;;8.07;3.60;;;;;;;16.68;83.57;102206.91;6098514;19;20078;-69
2023/08/10 06:47:52;;;;;;;7.28;3.95;;;;;;;16.81;84.01;102209.91;6100662;19;20003;-69
2023/08/10 06:49:57;;;;;;;8.25;3.50;;;;;;;16.88;82.86;102206.06;6103603;19;20082;-70
2023/08/10 06:52:03;;;;;;;9.07;3.40;;;;;;;16.97;82.10;102204.75;6099538;19;20371;-70
2023/08/10 06:54:08;;;;;;;7.60;3.47;;;;;;;17.10;81.05;102203.25;6097771;19;20110;-69
2023/08/10 06:56:13;;;;;;;7.85;3.42;;;;;;;17.21;81.07;102205.41;6101833;19;20002;-69
2023/08/10 06:58:19;;;;;;;7.38;3.72;;;;;;;17.27;81.29;102202.50;6092195;19;20115;-68
2023/08/10 07:00:30;;;;;;;6.70;3.53;;;;;;;17.29;79.43;102195.28;6092583;19;20082;-70
2023/08/10 07:02:39;;;;;;;7.47;3.20;;;;;;;17.43;79.11;102207.06;6098223;19;20009;-70
2023/08/10 07:04:45;;;;;;;8.40;3.92;;;;;;;17.48;78.74;102197.97;6092401;19;20010;-70
2023/08/10 07:06:48;;;;;;;8.30;3.28;;;;;;;17.61;78.79;102202.66;6097856;19;20605;-68
2023/08/10 07:08:53;;;;;;;8.00;3.50;;;;;;;17.68;77.50;102201.44;6096895;19;20014;-68
2023/08/10 07:10:58;;;;;;;7.68;3.50;;;;;;;17.76;76.60;102208.09;6100105;19;20024;-68
2023/08/10 07:13:03;;;;;;;6.95;3.42;;;;;;;17.81;76.89;102202.59;6099388;19;19998;-68
2023/08/10 07:15:10;;;;;;;8.10;3.50;;;;;;;17.89;75.06;102202.22;6097450;19;20513;-69
2023/08/10 07:17:15;;;;;;;7.25;3.25;;;;;;;17.94;76.48;102202.84;6091148;19;20354;-68
2023/08/10 07:19:22;;;;;;;6.03;3.50;;;;;;;18.09;75.50;102201.22;6099344;19;20127;-69
2023/08/10 07:21:30;;;;;;;7.28;3.33;;;;;;;18.14;75.68;102201.84;6093120;19;20093;-69
2023/08/10 07:23:35;;;;;;;6.47;3.58;;;;;;;18.27;75.08;102199.41;6091619;19;20010;-68
2023/08/10 07:25:40;;;;;;;7.80;3.38;;;;;;;18.27;73.67;102208.25;6103218;19;20006;-68
2023/08/10 07:27:46;;;;;;;7.38;3.45;;;;;;;18.32;74.08;102205.38;6103400;19;20003;-68
2023/08/10 07:29:49;;;;;;;6.07;3.40;;;;;;;18.42;71.93;102206.63;6102389;19;20632;-68
2023/08/10 07:32:00;;;;;;;5.45;3.17;;;;;;;18.47;73.12;102206.38;6096727;19;20006;-68
2023/08/10 07:34:06;;;;;;;4.88;2.63;;;;;;;18.49;71.66;102204.50;6103287;19;20104;-70
2023/08/10 07:36:14;;;;;;;7.22;3.15;;;;;;;18.58;72.60;102217.31;6099658;19;20384;-70
2023/08/10 07:38:19;;;;;;;6.35;2.47;;;;;;;18.57;71.29;102207.63;6111424;19;20007;-70
2023/08/10 07:40:25;;;;;;;7.55;3.33;;;;;;;18.56;72.41;102212.09;6108583;19;20003;-69
2023/08/10 07:42:30;;;;;;;5.80;2.58;;;;;;;18.69;72.11;102209.63;6099928;19;20047;-70
2023/08/10 07:44:35;;;;;;;7.40;3.05;;;;;;;18.64;70.84;102209.00;6100188;19;20035;-69
2023/08/10 07:46:40;;;;;;;7.40;2.88;;;;;;;18.54;71.73;102208.66;6098830;19;20006;-68
2023/08/10 07:48:45;;;;;;;9.05;3.38;;;;;;;18.67;71.30;102211.53;6103216;19;20011;-68
2023/08/10 07:50:54;;;;;;;5.18;3.10;;;;;;;18.79;69.49;102204.72;6103600;19;22367;-69
2023/08/10 07:53:03;;;;;;;7.40;3.20;;;;;;;18.68;68.60;102207.91;6100069;19;20045;-69
2023/08/10 07:55:09;;;;;;;4.43;2.60;;;;;;;18.78;68.61;102211.00;6102422;19;20003;-69
2023/08/10 07:57:14;;;;;;;7.60;3.03;;;;;;;18.82;69.14;102215.19;6095990;19;20031;-68
2023/08/10 07:59:19;;;;;;;6.07;2.50;;;;;;;19.02;68.57;102220.31;6103790;19;20031;-69
2023/08/10 08:01:24;;;;;;;6.03;2.60;;;;;;;19.04;68.62;102220.25;6098863;19;20002;-69
2023/08/10 08:03:29;;;;;;;8.63;2.97;;;;;;;19.15;67.73;102225.00;6102139;19;20038;-69
2023/08/10 08:05:37;;;;;;;8.05;2.92;;;;;;;19.07;66.55;102214.75;6101406;19;20339;-69
2023/08/10 08:07:42;;;;;;;5.18;2.70;;;;;;;19.22;65.89;102221.91;6098030;19;20003;-68
2023/08/10 08:09:50;;;;;;;6.35;3.15;;;;;;;19.28;66.99;102223.38;6101677;19;20010;-68
2023/08/10 08:11:55;;;;;;;9.45;3.35;;;;;;;19.28;66.88;102226.91;6091381;19;20471;-68
2023/08/10 08:14:00;;;;;;;4.20;2.60;;;;;;;19.45;67.01;102225.09;6101175;19;20014;-70
2023/08/10 08:16:05;;;;;;;5.07;2.55;;;;;;;19.58;66.44;102222.59;6102901;19;20380;-70
2023/08/10 08:18:40;;;;;;;6.90;2.90;;;;;;;19.63;65.38;102218.72;6100910;19;20436;-69
2023/08/10 08:20:46;;;;;;;7.10;3.28;;;;;;;19.68;65.46;102224.69;6101382;19;20043;-69
2023/08/10 08:22:51;;;;;;;6.82;2.75;;;;;;;19.66;65.84;102218.56;6100684;19;20025;-69
2023/08/10 08:24:59;;;;;;;7.95;3.25;;;;;;;19.67;66.94;102230.97;6100379;19;20003;-70
2023/08/10 08:27:04;;;;;;;8.07;3.78;;;;;;;19.63;64.67;102221.41;6100441;19;20066;-69
2023/08/10 08:29:09;;;;;;;8.07;3.72;;;;;;;19.82;64.95;102220.38;6100189;19;20017;-69
2023/08/10 08:31:15;;;;;;;8.48;3.08;;;;;;;19.85;63.94;102217.53;6094449;19;20535;-70
2023/08/10 08:33:21;;;;;;;10.07;3.63;;;;;;;19.76;65.05;102218.06;6102433;19;20548;-70
2023/08/10 08:35:27;;;;;;;9.25;3.45;;;;;;;19.90;64.43;102218.97;6100756;19;20015;-70
2023/08/10 08:37:35;;;;;;;7.80;3.53;;;;;;;19.94;64.55;102222.34;6109166;19;20031;-71
2023/08/10 08:39:40;;;;;;;7.40;3.58;;;;;;;20.07;64.03;102228.69;6109127;19;20087;-71
2023/08/10 08:41:50;;;;;;;6.95;3.63;;;;;;;20.15;64.77;102231.75;6102450;19;20546;-73
2023/08/10 08:43:55;;;;;;;10.65;4.00;;;;;;;20.29;64.43;102228.25;6101346;19;20099;-70
2023/08/10 08:46:01;;;;;;;7.45;3.47;;;;;;;20.43;63.70;102224.75;6104895;19;20596;-71
2023/08/10 08:48:09;;;;;;;6.40;2.95;;;;;;;20.37;62.79;102222.47;6105849;19;20035;-72
2023/08/10 08:50:15;;;;;;;7.15;2.92;;;;;;;20.44;63.62;102223.84;6102904;19;20119;-71
2023/08/10 08:52:21;;;;;;;7.15;3.08;;;;;;;20.56;62.27;102222.25;6103783;19;20014;-71
2023/08/10 08:54:27;;;;;;;9.32;3.45;;;;;;;20.50;62.05;102222.59;6104857;19;20006;-71
2023/08/10 08:56:32;;;;;;;6.18;3.15;;;;;;;20.76;62.80;102219.22;6101102;19;20523;-71
2023/08/10 08:58:40;;;;;;;5.82;3.33;;;;;;;20.50;62.12;102225.28;6100737;19;20021;-71
2023/08/10 09:00:50;;;;;;;5.43;3.00;;;;;;;20.41;60.74;102220.50;6100672;19;20565;-70
2023/08/10 09:02:53;;;;;;;6.13;2.95;;;;;;;20.35;61.73;102217.25;6106402;19;20030;-70
2023/08/10 09:05:05;;;;;;;10.05;3.33;;;;;;;20.51;62.66;102221.63;6106973;19;20015;-71
2023/08/10 09:07:10;;;;;;;7.57;3.00;;;;;;;20.60;61.29;102215.78;6100033;19;20505;-71
2023/08/10 09:09:18;;;;;;;9.32;3.63;;;;;;;20.55;61.23;102216.06;6106555;19;20459;-70
2023/08/10 09:11:25;;;;;;;6.70;3.45;;;;;;;20.73;61.12;102210.56;6103145;19;20515;-70
2023/08/10 09:13:30;;;;;;;7.68;3.08;;;;;;;20.91;60.94;102208.56;6101645;19;20565;-71
2023/08/10 09:15:38;;;;;;;6.65;3.35;;;;;;;20.86;60.24;102208.84;6101460;19;20015;-71
2023/08/10 09:17:49;;;;;;;6.85;3.35;;;;;;;20.51;60.70;102209.16;6105281;19;20114;-70
2023/08/10 09:19:53;;;;;;;6.00;2.78;;;;;;;20.83;59.52;102209.03;6104215;19;20014;-70
2023/08/10 09:21:59;;;;;;;7.25;3.40;;;;;;;20.98;61.16;102209.88;6106511;19;20360;-70
2023/08/10 09:24:04;;;;;;;7.20;3.10;;;;;;;21.01;59.94;102199.88;6097920;19;20609;-71
2023/08/10 09:26:11;;;;;;;6.05;2.90;;;;;;;20.83;60.76;102201.88;6104315;19;20074;-71
2023/08/10 09:28:16;;;;;;;8.73;3.05;;;;;;;21.01;60.27;102201.66;6100461;19;20017;-70
2023/08/10 09:30:22;;;;;;;5.57;2.70;;;;;;;21.16;60.54;102205.19;6102684;19;20018;-70
2023/08/10 09:32:28;;;;;;;5.65;3.03;;;;;;;21.02;60.66;102212.25;6098307;19;20011;-71
2023/08/10 09:34:33;;;;;;;5.88;2.65;;;;;;;20.91;58.91;102220.09;6105786;19;20018;-70
2023/08/10 09:36:39;;;;;;;5.47;2.70;;;;;;;20.82;60.46;102218.84;6105317;19;20385;-71
2023/08/10 09:38:55;;;;;;;7.43;2.50;;;;;;;20.70;60.83;102219.63;6104309;19;20110;-72
2023/08/10 09:41:08;;;;;;;4.65;2.50;;;;;;;20.99;59.46;102214.28;6104725;19;20054;-70
2023/08/10 09:43:13;;;;;;;7.45;2.85;;;;;;;21.03;58.50;102221.13;6100220;19;20599;-71
2023/08/10 09:45:19;;;;;;;7.50;2.58;;;;;;;21.16;58.19;102213.19;6104719;19;20090;-71
2023/08/10 09:47:25;;;;;;;4.93;2.80;;;;;;;20.74;60.24;102213.09;6100495;19;20010;-70
2023/08/10 09:49:38;;;;;;;6.18;2.75;;;;;;;20.75;59.48;102216.66;6099069;19;20014;-70
2023/08/10 09:51:46;;;;;;;3.97;2.55;;;;;;;20.84;59.49;102221.44;6102189;19;20010;-70
2023/08/10 09:53:55;;;;;;;5.03;2.70;;;;;;;21.20;58.63;102217.41;6097973;19;20643;-70
2023/08/10 09:56:00;;;;;;;6.57;2.88;;;;;;;21.18;59.21;102219.31;6102322;19;20022;-70